createdAt,value
2022-11-12T00:02:02.118Z,48.40
2022-11-12T00:09:25.313Z,48.90
2022-11-12T00:11:51.732Z,48.60
2022-11-12T00:14:18.168Z,48.90
2022-11-12T00:16:44.587Z,48.60
2022-11-12T00:21:37.992Z,48.50
2022-11-12T00:24:04.429Z,48.40
2022-11-12T00:26:30.867Z,49.20
2022-11-12T00:28:57.314Z,49.00
2022-11-12T00:31:23.736Z,48.80
2022-11-12T00:33:50.159Z,48.40
2022-11-12T00:36:16.601Z,48.30
2022-11-12T00:38:43.031Z,48.80
2022-11-12T00:41:09.473Z,48.80
2022-11-12T00:43:35.895Z,48.20
2022-11-12T00:46:02.339Z,48.50
2022-11-12T00:48:28.927Z,48.20
2022-11-12T00:50:55.527Z,48.40
2022-11-12T00:53:21.975Z,49.00
2022-11-12T00:55:48.404Z,48.70
2022-11-12T00:58:14.855Z,48.70
2022-11-12T01:00:41.307Z,48.10
2022-11-12T01:03:07.804Z,48.20
2022-11-12T01:05:34.238Z,48.70
2022-11-12T01:08:00.680Z,48.70
2022-11-12T01:10:27.113Z,48.10
2022-11-12T01:12:53.533Z,48.40
2022-11-12T01:15:19.963Z,48.20
2022-11-12T01:17:46.398Z,47.90
2022-11-12T01:20:12.837Z,47.50
2022-11-12T01:22:39.283Z,48.50
2022-11-12T01:25:05.731Z,48.40
2022-11-12T01:29:59.160Z,47.80
2022-11-12T01:32:25.593Z,48.70
2022-11-12T01:37:19.029Z,48.30
2022-11-12T01:39:45.465Z,48.00
2022-11-12T01:42:11.894Z,48.20
2022-11-12T01:44:38.327Z,47.90
2022-11-12T01:47:04.757Z,48.40
2022-11-12T01:49:31.192Z,47.90
2022-11-12T01:51:57.636Z,47.90
2022-11-12T01:54:24.064Z,48.20
2022-11-12T01:56:50.500Z,48.30
2022-11-12T01:59:16.931Z,48.40
2022-11-12T02:01:43.363Z,48.30
2022-11-12T02:04:09.808Z,47.90
2022-11-12T02:06:36.260Z,47.40
2022-11-12T02:09:02.714Z,47.40
2022-11-12T02:11:29.158Z,47.60
2022-11-12T02:13:55.562Z,47.50
2022-11-12T02:16:24.818Z,47.60
2022-11-12T02:18:51.243Z,48.20
2022-11-12T02:21:17.691Z,48.30
2022-11-12T02:23:44.128Z,48.00
2022-11-12T02:26:10.555Z,48.60
2022-11-12T02:28:37.002Z,48.80
2022-11-12T02:31:03.424Z,48.30
2022-11-12T02:33:29.875Z,48.90
2022-11-12T02:35:56.303Z,48.80
2022-11-12T02:40:49.992Z,48.20
2022-11-12T02:45:45.356Z,48.60
2022-11-12T02:48:16.482Z,48.40
2022-11-12T02:50:45.463Z,47.60
2022-11-12T02:53:11.875Z,48.40
2022-11-12T02:55:38.320Z,48.20
2022-11-12T02:58:04.748Z,48.00
2022-11-12T03:00:34.086Z,48.10
2022-11-12T03:03:00.507Z,48.00
2022-11-12T03:05:26.962Z,48.10
2022-11-12T03:07:53.379Z,47.50
2022-11-12T03:12:46.786Z,47.70
2022-11-12T03:15:13.213Z,48.00
2022-11-12T03:17:39.648Z,47.70
2022-11-12T03:20:06.075Z,48.20
2022-11-12T03:24:59.491Z,48.90
2022-11-12T03:27:25.940Z,47.90
2022-11-12T03:29:52.420Z,48.60
2022-11-12T03:32:18.876Z,48.10
2022-11-12T03:34:45.299Z,48.00
2022-11-12T03:37:11.745Z,47.50
2022-11-12T03:39:38.170Z,47.90
2022-11-12T03:42:04.634Z,47.90
2022-11-12T03:46:58.043Z,48.00
2022-11-12T03:49:24.495Z,47.60
2022-11-12T03:51:50.921Z,48.10
2022-11-12T03:54:17.360Z,48.20
2022-11-12T03:56:43.783Z,47.70
2022-11-12T03:59:10.237Z,47.60
2022-11-12T04:01:36.694Z,47.60
2022-11-12T04:04:03.159Z,48.10
2022-11-12T04:06:29.625Z,47.60
2022-11-12T04:11:23.014Z,47.90
2022-11-12T04:13:49.437Z,48.00
2022-11-12T04:18:42.888Z,47.90
2022-11-12T04:21:09.321Z,48.60
2022-11-12T04:23:35.746Z,48.10
2022-11-12T04:26:02.163Z,47.80
2022-11-12T04:28:28.810Z,48.30
2022-11-12T04:30:55.443Z,47.60
2022-11-12T04:33:21.865Z,49.50
2022-11-12T04:35:48.306Z,48.10
2022-11-12T04:38:14.727Z,47.70
2022-11-12T04:40:41.148Z,47.80
2022-11-12T04:45:35.735Z,48.20
2022-11-12T04:48:02.169Z,47.40
2022-11-12T04:50:28.590Z,48.50
2022-11-12T04:52:55.023Z,48.20
2022-11-12T04:55:21.451Z,47.30
2022-11-12T04:57:47.885Z,47.60
2022-11-12T05:00:14.306Z,47.80
2022-11-12T05:02:40.755Z,47.50
2022-11-12T05:05:07.174Z,48.00
2022-11-12T05:07:33.596Z,49.00
2022-11-12T05:10:00.079Z,47.40
2022-11-12T05:12:26.529Z,47.90
2022-11-12T05:14:52.972Z,47.30
2022-11-12T05:17:19.402Z,47.70
2022-11-12T05:19:45.846Z,47.70
2022-11-12T05:22:33.196Z,48.90
2022-11-12T05:24:58.687Z,47.00
2022-11-12T05:27:25.110Z,47.70
2022-11-12T05:29:51.567Z,47.70
2022-11-12T05:32:18.005Z,47.80
2022-11-12T05:34:44.446Z,47.90
2022-11-12T05:37:10.886Z,48.80
2022-11-12T05:39:37.492Z,48.60
2022-11-12T05:44:40.152Z,47.60
2022-11-12T05:47:06.594Z,48.00
2022-11-12T05:49:33.027Z,49.00
2022-11-12T05:51:59.475Z,48.40
2022-11-12T05:54:25.919Z,48.80
2022-11-12T05:59:19.351Z,48.10
2022-11-12T06:01:45.785Z,47.40
2022-11-12T06:04:12.305Z,48.30
2022-11-12T06:06:38.759Z,47.90
2022-11-12T06:09:07.100Z,47.60
2022-11-12T06:11:33.543Z,48.20
2022-11-12T06:13:59.966Z,47.80
2022-11-12T06:16:26.422Z,48.00
2022-11-12T06:18:52.850Z,47.60
2022-11-12T06:21:19.302Z,48.30
2022-11-12T06:23:45.775Z,47.60
2022-11-12T06:26:12.230Z,47.70
2022-11-12T06:28:38.699Z,47.90
2022-11-12T06:31:05.167Z,47.60
2022-11-12T06:33:31.620Z,47.50
2022-11-12T06:35:58.147Z,47.30
2022-11-12T06:38:24.848Z,47.50
2022-11-12T06:40:52.729Z,47.90
2022-11-12T06:43:19.154Z,47.80
2022-11-12T06:45:45.591Z,47.80
2022-11-12T06:48:12.010Z,47.70
2022-11-12T06:53:05.434Z,47.60
2022-11-12T06:55:31.868Z,47.60
2022-11-12T06:57:58.312Z,46.80
2022-11-12T07:00:24.746Z,47.50
2022-11-12T07:02:51.195Z,47.60
2022-11-12T07:05:17.632Z,47.20
2022-11-12T07:07:44.070Z,47.50
2022-11-12T07:10:10.490Z,47.70
2022-11-12T07:12:38.159Z,47.20
2022-11-12T07:15:04.593Z,46.90
2022-11-12T07:17:31.047Z,47.90
2022-11-12T07:22:29.830Z,47.10
2022-11-12T07:24:56.250Z,46.80
2022-11-12T07:27:22.707Z,48.60
2022-11-12T07:29:49.147Z,47.50
2022-11-12T07:32:15.579Z,47.00
2022-11-12T07:34:42.021Z,47.20
2022-11-12T07:37:08.470Z,47.20
2022-11-12T07:39:34.900Z,47.40
2022-11-12T07:42:01.364Z,47.20
2022-11-12T07:44:27.825Z,47.60
2022-11-12T07:46:54.247Z,47.20
2022-11-12T07:49:20.668Z,47.40
2022-11-12T07:51:47.101Z,47.10
2022-11-12T07:54:13.529Z,47.70
2022-11-12T07:56:39.951Z,47.20
2022-11-12T07:59:06.384Z,47.90
2022-11-12T08:01:32.873Z,47.10
2022-11-12T08:06:26.315Z,46.70
2022-11-12T08:08:52.765Z,48.10
2022-11-12T08:11:19.194Z,47.70
2022-11-12T08:13:45.634Z,47.00
2022-11-12T08:16:12.055Z,47.20
2022-11-12T08:18:38.507Z,46.70
2022-11-12T08:21:04.934Z,46.70
2022-11-12T08:23:31.356Z,47.70
2022-11-12T08:25:57.793Z,47.50
2022-11-12T08:28:24.503Z,47.30
2022-11-12T08:30:51.200Z,47.30
2022-11-12T08:33:17.636Z,47.00
2022-11-12T08:35:44.088Z,46.80
2022-11-12T08:40:37.511Z,47.40
2022-11-12T08:43:03.941Z,47.20
2022-11-12T08:45:30.367Z,47.40
2022-11-12T08:50:23.776Z,47.00
2022-11-12T08:52:50.203Z,47.90
2022-11-12T08:55:16.643Z,47.70
2022-11-12T08:57:43.094Z,48.40
2022-11-12T09:02:36.734Z,48.10
2022-11-12T09:05:03.209Z,48.80
2022-11-12T09:12:42.596Z,47.90
2022-11-12T09:15:36.349Z,46.80
2022-11-12T09:17:55.473Z,47.90
2022-11-12T09:20:21.906Z,47.50
2022-11-12T09:22:48.358Z,48.20
2022-11-12T09:25:14.770Z,47.50
2022-11-12T09:27:44.427Z,48.00
2022-11-12T09:30:14.639Z,48.50
2022-11-12T09:32:41.072Z,47.40
2022-11-12T09:35:10.596Z,47.80
2022-11-12T09:37:37.027Z,48.10
2022-11-12T09:40:03.457Z,47.20
2022-11-12T09:42:29.888Z,47.30
2022-11-12T09:44:56.339Z,47.50
2022-11-12T09:47:22.783Z,47.80
2022-11-12T09:52:16.197Z,47.70
2022-11-12T09:54:42.630Z,47.30
2022-11-12T09:57:09.060Z,47.90
2022-11-12T10:02:02.548Z,47.30
2022-11-12T10:04:29.010Z,47.80
2022-11-12T10:06:55.467Z,47.50
2022-11-12T10:09:21.908Z,49.30
2022-11-12T10:11:48.354Z,47.60
2022-11-12T10:14:14.863Z,47.70
2022-11-12T10:16:41.348Z,48.10
2022-11-12T10:19:07.796Z,47.80
2022-11-12T10:21:34.223Z,47.90
2022-11-12T10:24:00.676Z,47.80
2022-11-12T10:26:27.103Z,47.80
2022-11-12T10:28:53.521Z,48.60
2022-11-12T10:31:19.947Z,48.10
2022-11-12T10:33:46.366Z,48.20
2022-11-12T10:36:12.801Z,48.10
2022-11-12T10:38:39.218Z,49.80
2022-11-12T10:41:10.546Z,49.60
2022-11-12T10:43:37.219Z,48.10
2022-11-12T10:46:03.687Z,48.60
2022-11-12T10:48:30.550Z,50.20
2022-11-12T10:50:57.277Z,48.40
2022-11-12T10:53:23.703Z,48.30
2022-11-12T10:55:50.125Z,49.80
2022-11-12T10:58:16.544Z,48.40
2022-11-12T11:00:42.971Z,48.10
2022-11-12T11:03:09.408Z,49.00
2022-11-12T11:05:35.866Z,48.20
2022-11-12T11:08:02.322Z,48.70
2022-11-12T11:10:28.759Z,48.80
2022-11-12T11:12:55.188Z,48.20
2022-11-12T11:15:21.632Z,48.90
2022-11-12T11:17:48.081Z,48.30
2022-11-12T11:20:14.544Z,48.70
2022-11-12T11:22:40.988Z,47.90
2022-11-12T11:25:07.427Z,48.10
2022-11-12T11:27:33.870Z,48.20
2022-11-12T11:30:00.316Z,47.60
2022-11-12T11:32:26.748Z,47.60
2022-11-12T11:34:53.178Z,47.60
2022-11-12T11:37:19.604Z,48.00
2022-11-12T11:39:46.035Z,47.90
2022-11-12T11:42:12.456Z,48.00
2022-11-12T11:44:38.883Z,48.20
2022-11-12T11:47:05.311Z,47.70
2022-11-12T11:49:31.731Z,47.20
2022-11-12T11:51:58.186Z,48.20
2022-11-12T11:54:24.618Z,48.40
2022-11-12T11:56:51.066Z,47.70
2022-11-12T11:59:17.491Z,47.70
2022-11-12T12:01:43.922Z,47.60
2022-11-12T12:04:10.382Z,48.40
2022-11-12T12:06:36.865Z,47.60
2022-11-12T12:09:03.322Z,47.80
2022-11-12T12:11:29.736Z,47.30
2022-11-12T12:13:56.161Z,48.00
2022-11-12T12:16:22.589Z,47.70
2022-11-12T12:18:49.008Z,48.80
2022-11-12T12:21:15.440Z,47.70
2022-11-12T12:23:41.905Z,47.90
2022-11-12T12:26:08.336Z,48.30
2022-11-12T12:28:34.772Z,48.30
2022-11-12T12:31:01.207Z,48.10
2022-11-12T12:33:27.646Z,48.60
2022-11-12T12:35:54.088Z,48.90
2022-11-12T12:38:20.502Z,48.70
2022-11-12T12:45:40.853Z,49.20
2022-11-12T12:48:07.291Z,50.40
2022-11-12T12:50:33.715Z,48.70
2022-11-12T12:55:29.051Z,48.20
2022-11-12T12:57:55.483Z,48.60
2022-11-12T13:00:21.898Z,50.30
2022-11-12T13:02:48.344Z,49.60
2022-11-12T13:07:41.737Z,48.60
2022-11-12T13:10:08.167Z,48.90
2022-11-12T13:12:34.590Z,49.00
2022-11-12T13:15:01.019Z,49.20
2022-11-12T13:19:54.418Z,49.40
2022-11-12T13:24:47.833Z,49.90
2022-11-12T13:27:14.295Z,48.90
2022-11-12T13:29:40.707Z,48.60
2022-11-12T13:32:07.135Z,48.90
2022-11-12T13:34:33.555Z,48.70
2022-11-12T13:39:26.944Z,49.00
2022-11-12T13:41:53.365Z,50.50
2022-11-12T13:44:19.778Z,49.40
2022-11-12T13:49:13.153Z,49.00
2022-11-12T13:51:39.584Z,49.00
2022-11-12T13:54:06.006Z,48.80
2022-11-12T13:56:32.421Z,48.60
2022-11-12T13:58:58.927Z,48.90
2022-11-12T14:01:25.420Z,49.20
2022-11-12T14:03:51.915Z,48.30
2022-11-12T14:06:18.357Z,47.50
2022-11-12T14:08:44.782Z,49.20
2022-11-12T14:13:38.171Z,48.70
2022-11-12T14:16:04.596Z,48.30
2022-11-12T14:20:58.022Z,49.60
2022-11-12T14:23:25.438Z,48.70
2022-11-12T14:25:52.558Z,48.70
2022-11-12T14:28:19.076Z,49.10
2022-11-12T14:30:45.492Z,49.10
2022-11-12T14:33:11.958Z,49.10
2022-11-12T14:35:38.401Z,49.20
2022-11-12T14:38:04.827Z,48.60
2022-11-12T14:42:58.212Z,48.20
2022-11-12T14:45:24.658Z,48.70
2022-11-12T14:47:51.079Z,48.80
2022-11-12T14:50:17.512Z,49.40
2022-11-12T14:57:37.841Z,49.30
2022-11-12T15:02:46.867Z,49.30
2022-11-12T15:05:17.679Z,49.20
2022-11-12T15:07:44.148Z,48.50
2022-11-12T15:10:10.613Z,49.60
2022-11-12T15:12:37.035Z,48.90
2022-11-12T15:15:06.234Z,48.90
2022-11-12T15:17:32.681Z,49.50
2022-11-12T15:19:59.124Z,49.90
2022-11-12T15:22:27.337Z,49.10
2022-11-12T15:24:53.846Z,49.00
2022-11-12T15:27:20.305Z,49.00
2022-11-12T15:29:46.724Z,50.20
2022-11-12T15:32:14.112Z,48.60
2022-11-12T15:37:07.616Z,49.80
2022-11-12T15:39:34.064Z,50.40
2022-11-12T15:42:00.491Z,49.40
2022-11-12T15:46:53.883Z,50.00
2022-11-12T15:49:23.045Z,49.80
2022-11-12T15:51:49.472Z,50.20
2022-11-12T15:54:15.906Z,49.80
2022-11-12T15:56:42.343Z,49.70
2022-11-12T15:59:08.795Z,50.20
2022-11-12T16:01:35.214Z,50.10
2022-11-12T16:04:01.647Z,49.00
2022-11-12T16:08:55.041Z,50.30
2022-11-12T16:11:21.487Z,49.70
2022-11-12T16:13:49.955Z,49.90
2022-11-12T16:16:16.378Z,50.10
2022-11-12T16:18:42.810Z,49.50
2022-11-12T16:21:09.237Z,49.70
2022-11-12T16:23:35.681Z,50.20
2022-11-12T16:26:02.104Z,49.90
2022-11-12T16:30:55.515Z,49.60
2022-11-12T16:33:22.030Z,49.90
2022-11-12T16:35:48.451Z,50.00
2022-11-12T16:40:41.826Z,49.20
2022-11-12T16:43:08.274Z,49.70
2022-11-12T16:45:34.707Z,49.40
2022-11-12T16:48:01.160Z,50.00
2022-11-12T16:52:54.562Z,48.80
2022-11-12T16:55:20.988Z,50.40
2022-11-12T16:57:47.427Z,49.40
2022-11-12T17:02:45.363Z,48.90
2022-11-12T17:05:14.683Z,49.60
2022-11-12T17:07:41.145Z,50.30
2022-11-12T17:10:07.558Z,50.40
2022-11-12T17:12:33.975Z,50.20
2022-11-12T17:15:00.399Z,50.20
2022-11-12T17:19:53.792Z,50.30
2022-11-12T17:32:08.124Z,50.00
2022-11-12T17:34:34.559Z,48.20
2022-11-12T17:37:00.979Z,49.80
2022-11-12T17:39:27.408Z,50.30
2022-11-12T17:41:53.822Z,49.60
2022-11-12T17:44:20.276Z,50.00
2022-11-12T17:46:46.730Z,49.50
2022-11-12T17:49:13.154Z,49.50
2022-11-12T17:51:39.583Z,49.60
2022-11-12T17:54:05.999Z,49.60
2022-11-12T17:56:36.770Z,49.30
2022-11-12T17:59:03.586Z,48.70
2022-11-12T18:01:30.050Z,49.40
2022-11-12T18:06:23.518Z,49.50
2022-11-12T18:08:49.943Z,49.10
2022-11-12T18:11:16.366Z,48.20
2022-11-12T18:16:14.507Z,50.90
2022-11-12T18:18:41.295Z,49.30
2022-11-12T18:21:07.730Z,49.00
2022-11-12T18:23:34.157Z,50.80
2022-11-12T18:26:00.597Z,49.10
2022-11-12T18:28:27.044Z,49.40
2022-11-12T18:30:53.484Z,49.20
2022-11-12T18:33:19.894Z,49.40
2022-11-12T18:35:46.327Z,48.90
2022-11-12T18:38:12.753Z,48.80
2022-11-12T18:40:39.192Z,49.50
2022-11-12T18:43:05.611Z,49.10
2022-11-12T18:45:32.051Z,49.10
2022-11-12T18:47:58.472Z,49.40
2022-11-12T18:50:24.908Z,48.30
2022-11-12T18:52:51.338Z,49.80
2022-11-12T18:55:17.765Z,49.20
2022-11-12T18:57:44.208Z,49.20
2022-11-12T19:00:10.641Z,48.60
2022-11-12T19:02:37.090Z,49.60
2022-11-12T19:05:03.514Z,49.00
2022-11-12T19:07:29.937Z,49.70
2022-11-12T19:09:56.365Z,49.40
2022-11-12T19:12:22.798Z,49.70
2022-11-12T19:17:16.225Z,49.80
2022-11-12T19:19:42.667Z,49.20
2022-11-12T19:22:09.083Z,49.90
2022-11-12T19:24:35.513Z,49.60
2022-11-12T19:27:01.957Z,49.50
2022-11-12T19:29:28.403Z,49.40
2022-11-12T19:31:54.824Z,50.20
2022-11-12T19:34:21.288Z,49.90
2022-11-12T19:39:14.987Z,50.20
2022-11-12T19:41:41.415Z,50.20
2022-11-12T19:44:07.841Z,50.00
2022-11-12T19:46:34.268Z,50.50
2022-11-12T19:49:00.691Z,50.30
2022-11-12T19:51:27.114Z,50.60
2022-11-12T19:53:53.534Z,52.50
2022-11-12T19:56:19.994Z,49.70
2022-11-12T19:58:46.423Z,49.00
2022-11-12T20:01:12.935Z,49.50
2022-11-12T20:03:39.418Z,48.90
2022-11-12T20:08:32.836Z,49.20
2022-11-12T20:10:59.275Z,49.40
2022-11-12T20:13:25.706Z,48.90
2022-11-12T20:15:52.139Z,49.20
2022-11-12T20:18:18.592Z,50.30
2022-11-12T20:20:45.021Z,48.20
2022-11-12T20:23:11.474Z,49.30
2022-11-12T20:28:04.898Z,48.40
2022-11-12T20:30:31.329Z,48.70
2022-11-12T20:32:57.744Z,48.70
2022-11-12T20:35:24.191Z,49.00
2022-11-12T20:37:50.621Z,49.30
2022-11-12T20:40:17.071Z,48.60
2022-11-12T20:42:43.499Z,48.70
2022-11-12T20:45:09.961Z,49.10
2022-11-12T20:47:36.389Z,48.40
2022-11-12T20:50:02.915Z,49.00
2022-11-12T20:52:31.146Z,49.60
2022-11-12T20:54:57.572Z,49.30
2022-11-12T20:57:24.006Z,50.40
2022-11-12T20:59:51.664Z,49.10
2022-11-12T21:02:18.185Z,48.70
2022-11-12T21:04:44.622Z,48.60
2022-11-12T21:07:11.115Z,48.70
2022-11-12T21:12:04.565Z,49.70
2022-11-12T21:14:31.015Z,48.90
2022-11-12T21:16:57.456Z,48.90
2022-11-12T21:19:23.905Z,48.50
2022-11-12T21:21:50.333Z,49.10
2022-11-12T21:24:16.852Z,48.70
2022-11-12T21:31:37.252Z,48.30
2022-11-12T21:34:03.681Z,49.20
2022-11-12T21:36:30.130Z,47.70
2022-11-12T21:38:56.559Z,48.90
2022-11-12T21:43:49.985Z,48.90
2022-11-12T21:46:16.423Z,48.40
2022-11-12T21:48:42.875Z,48.80
2022-11-12T21:53:36.291Z,48.90
2022-11-12T21:56:02.739Z,48.90
2022-11-12T21:58:29.560Z,48.40
2022-11-12T22:00:56.217Z,48.90
2022-11-12T22:03:22.641Z,49.00
2022-11-12T22:05:49.098Z,48.50
2022-11-12T22:10:42.523Z,48.40
2022-11-12T22:15:55.365Z,48.00
2022-11-12T22:18:21.810Z,48.70
2022-11-12T22:20:48.267Z,49.30
2022-11-12T22:25:41.734Z,48.00
2022-11-12T22:28:08.185Z,49.20
2022-11-12T22:30:34.612Z,48.60
2022-11-12T22:33:01.061Z,49.30
2022-11-12T22:35:27.538Z,49.20
2022-11-12T22:37:53.980Z,48.20
2022-11-12T22:40:20.395Z,48.20
2022-11-12T22:45:13.794Z,48.70
2022-11-12T22:47:40.241Z,48.80
2022-11-12T22:50:06.687Z,49.50
2022-11-12T22:55:00.151Z,48.70
2022-11-12T22:57:26.570Z,48.60
2022-11-12T22:59:53.013Z,49.00
2022-11-12T23:02:19.481Z,48.20
2022-11-12T23:04:45.919Z,48.70
2022-11-12T23:07:12.384Z,48.30
2022-11-12T23:09:38.848Z,48.80
2022-11-12T23:12:05.293Z,47.80
2022-11-12T23:14:31.736Z,47.80
2022-11-12T23:16:58.159Z,48.00
2022-11-12T23:21:51.555Z,48.40
2022-11-12T23:24:17.979Z,48.10
2022-11-12T23:26:44.420Z,46.70
2022-11-12T23:31:37.796Z,47.70
2022-11-12T23:34:04.215Z,47.70
2022-11-12T23:36:30.645Z,48.50
2022-11-12T23:38:57.075Z,48.30
2022-11-12T23:43:50.497Z,47.30
2022-11-12T23:46:16.973Z,48.00
2022-11-12T23:51:10.502Z,47.90
2022-11-12T23:53:38.125Z,47.50
2022-11-12T23:56:04.546Z,48.00
2022-11-12T23:58:31.258Z,48.40
